Time;durP1;ratioP1;P1;durP2;ratioP2;P2;SDS_P1;SDS_P2;PMS_P1;PMS_P2;Temp;Humidity;BMP_temperature;BMP_pressure;BME280_temperature;BME280_humidity;BME280_pressure;Samples;Min_cycle;Max_cycle;Signal;HPM_P1;HPM_P2
2023/08/12 00:00:16;;;;;;;8.73;6.03;;;15.30;99.90;;;;;;4593120;19;19924;-63
2023/08/12 00:02:07;;;;;;;11.15;6.50;;;15.30;99.90;;;;;;4591823;19;20315;-62
2023/08/12 00:03:39;;;;;;;;;;;15.20;99.90;;;;;;4593965;19;20011;-62
2023/08/12 00:05:13;;;;;;;9.48;6.28;;;15.30;99.90;;;;;;4593330;19;19970;-62
2023/08/12 00:06:44;;;;;;;9.52;6.25;;;15.30;99.90;;;;;;4593149;19;20104;-62
2023/08/12 00:08:16;;;;;;;10.25;7.13;;;15.30;99.90;;;;;;4593215;19;20025;-62
2023/08/12 00:09:49;;;;;;;11.50;7.35;;;15.30;99.90;;;;;;4592994;19;19995;-63
2023/08/12 00:11:20;;;;;;;9.18;6.78;;;15.20;99.90;;;;;;4592794;19;20149;-63
2023/08/12 00:12:53;;;;;;;;;;;15.20;99.90;;;;;;4593926;19;20015;-62
2023/08/12 00:14:25;;;;;;;10.02;6.63;;;15.20;99.90;;;;;;4591727;19;19922;-62
2023/08/12 00:15:57;;;;;;;10.23;6.95;;;15.20;99.90;;;;;;4592928;19;20006;-62
2023/08/12 00:17:29;;;;;;;8.27;6.70;;;15.20;99.90;;;;;;4593019;19;20018;-62
2023/08/12 00:19:01;;;;;;;9.82;6.80;;;15.10;99.90;;;;;;4593329;19;20444;-62
2023/08/12 00:20:32;;;;;;;9.88;6.78;;;15.10;99.90;;;;;;4592729;19;20011;-62
2023/08/12 00:22:04;;;;;;;;;;;15.20;99.90;;;;;;4592461;19;20566;-63
2023/08/12 00:23:39;;;;;;;9.50;6.95;;;15.20;99.90;;;;;;4592957;19;19910;-63
2023/08/12 00:25:10;;;;;;;11.38;7.47;;;15.20;99.90;;;;;;4591457;19;20005;-62
2023/08/12 00:26:43;;;;;;;9.80;7.10;;;15.10;99.90;;;;;;4591274;19;20007;-62
2023/08/12 00:28:14;;;;;;;10.18;6.65;;;15.10;99.90;;;;;;4592334;19;20346;-63
2023/08/12 00:29:46;;;;;;;9.63;6.70;;;15.10;99.90;;;;;;4592547;19;20003;-62
2023/08/12 00:31:17;;;;;;;;;;;15.10;99.90;;;;;;4593316;19;20434;-63
2023/08/12 00:32:49;;;;;;;9.43;6.55;;;15.10;99.90;;;;;;4591328;19;19911;-62
2023/08/12 00:34:20;;;;;;;9.32;6.13;;;15.10;99.90;;;;;;4591197;19;20002;-62
2023/08/12 00:35:52;;;;;;;;;;;15.10;99.90;;;;;;4593329;19;20017;-62
2023/08/12 00:37:23;;;;;;;8.47;6.10;;;15.10;99.90;;;;;;4592830;19;20246;-62
2023/08/12 00:38:54;;;;;;;;;;;15.10;99.90;;;;;;4593455;19;20418;-62
2023/08/12 00:40:26;;;;;;;9.40;6.65;;;15.00;99.90;;;;;;4592018;19;19914;-63
2023/08/12 00:41:58;;;;;;;9.98;6.55;;;15.00;99.90;;;;;;4589375;19;20007;-62
2023/08/12 00:43:29;;;;;;;8.82;6.72;;;15.00;99.90;;;;;;4592469;19;20009;-62
2023/08/12 00:45:01;;;;;;;9.80;6.97;;;15.00;99.90;;;;;;4592256;19;20047;-62
2023/08/12 00:46:34;;;;;;;9.82;6.05;;;15.00;99.90;;;;;;4591238;19;20418;-62
2023/08/12 00:48:06;;;;;;;9.90;7.28;;;15.00;99.90;;;;;;4591069;19;20003;-62
2023/08/12 00:49:37;;;;;;;9.55;6.55;;;15.00;99.90;;;;;;4590695;19;20034;-62
2023/08/12 00:51:09;;;;;;;11.73;6.40;;;15.10;99.90;;;;;;4590741;19;20155;-62
2023/08/12 00:52:41;;;;;;;8.77;6.40;;;15.00;99.90;;;;;;4590637;19;20033;-62
2023/08/12 00:54:14;;;;;;;10.40;6.93;;;15.00;99.90;;;;;;4590613;19;20118;-62
2023/08/12 00:55:46;;;;;;;9.52;6.47;;;15.00;99.90;;;;;;4590585;19;20007;-62
2023/08/12 00:57:17;;;;;;;12.93;7.70;;;14.90;99.90;;;;;;4590617;19;20077;-62
2023/08/12 00:58:49;;;;;;;11.25;7.25;;;14.90;99.90;;;;;;4591525;19;20015;-62
2023/08/12 01:00:20;;;;;;;9.95;7.07;;;14.90;99.90;;;;;;4592134;19;20398;-62
2023/08/12 01:01:52;;;;;;;;;;;14.90;99.90;;;;;;4590639;19;20023;-62
2023/08/12 01:03:24;;;;;;;11.10;7.68;;;14.90;99.90;;;;;;4591809;19;19918;-62
2023/08/12 01:04:55;;;;;;;10.60;7.00;;;14.90;99.90;;;;;;4592820;19;19998;-62
2023/08/12 01:06:27;;;;;;;11.95;7.72;;;14.90;99.90;;;;;;4592546;19;20022;-63
2023/08/12 01:07:58;;;;;;;9.05;6.72;;;14.80;99.90;;;;;;4589536;19;20022;-62
2023/08/12 01:09:30;;;;;;;11.00;7.55;;;14.80;99.90;;;;;;4591815;19;20019;-62
2023/08/12 01:11:28;;;;;;;10.15;7.80;;;14.90;99.90;;;;;;4590782;19;20049;-62
2023/08/12 01:13:14;;;;;;;11.07;7.70;;;14.90;99.90;;;;;;4592538;19;20418;-62
2023/08/12 01:14:51;;;;;;;9.30;6.80;;;14.90;99.90;;;;;;4591052;19;20018;-62
2023/08/12 01:16:22;;;;;;;9.98;7.00;;;14.90;99.90;;;;;;4591037;19;20326;-62
2023/08/12 01:17:58;;;;;;;9.50;6.93;;;14.90;99.90;;;;;;4590817;19;20011;-62
2023/08/12 01:19:33;;;;;;;11.05;7.47;;;14.80;99.90;;;;;;4591898;19;20031;-62
2023/08/12 01:21:06;;;;;;;10.73;7.63;;;14.80;99.90;;;;;;4592047;19;20441;-62
2023/08/12 01:22:39;;;;;;;9.65;7.93;;;14.80;99.90;;;;;;4592133;19;20015;-62
2023/08/12 01:24:10;;;;;;;12.40;7.50;;;14.80;99.90;;;;;;4591073;19;20433;-62
2023/08/12 01:25:43;;;;;;;11.77;8.85;;;14.80;99.90;;;;;;4590875;19;19998;-62
2023/08/12 01:27:15;;;;;;;10.88;7.88;;;14.70;99.90;;;;;;4591015;19;20006;-62
2023/08/12 01:28:47;;;;;;;11.90;7.72;;;14.70;99.90;;;;;;4591737;19;20077;-62
2023/08/12 01:30:19;;;;;;;10.18;7.03;;;14.80;99.90;;;;;;4592346;19;20003;-62
2023/08/12 01:31:54;;;;;;;10.25;7.22;;;14.70;99.90;;;;;;4591153;19;20014;-62
2023/08/12 01:33:34;;;;;;;11.20;7.78;;;14.70;99.90;;;;;;4590506;19;20014;-62
2023/08/12 01:35:17;;;;;;;11.20;7.82;;;14.70;99.90;;;;;;4590727;19;20369;-62
2023/08/12 01:36:53;;;;;;;11.60;7.43;;;14.70;99.90;;;;;;4590494;19;20342;-62
2023/08/12 01:38:25;;;;;;;11.82;7.82;;;14.70;99.90;;;;;;4590650;19;20003;-62
2023/08/12 01:39:56;;;;;;;;;;;14.70;99.90;;;;;;4590862;19;20007;-63
2023/08/12 01:41:28;;;;;;;12.07;8.73;;;14.70;99.90;;;;;;4590095;19;20008;-62
2023/08/12 01:43:00;;;;;;;12.70;9.68;;;14.70;99.90;;;;;;4591226;19;20307;-62
2023/08/12 01:44:33;;;;;;;14.18;9.88;;;14.60;99.90;;;;;;4589749;19;20316;-62
2023/08/12 01:46:05;;;;;;;12.00;9.18;;;14.60;99.90;;;;;;4589911;19;20009;-62
2023/08/12 01:47:37;;;;;;;11.48;8.15;;;14.60;99.90;;;;;;4590018;19;20002;-62
2023/08/12 01:49:09;;;;;;;;;;;14.60;99.90;;;;;;4591382;19;20485;-62
2023/08/12 01:50:46;;;;;;;10.02;6.90;;;14.60;99.90;;;;;;4590606;19;20010;-62
2023/08/12 01:52:18;;;;;;;11.30;7.70;;;14.70;99.90;;;;;;4589923;19;20295;-62
2023/08/12 01:53:50;;;;;;;9.30;6.88;;;14.60;99.90;;;;;;4590164;19;20028;-62
2023/08/12 01:55:23;;;;;;;8.85;6.93;;;14.70;99.90;;;;;;4590882;19;20006;-62
2023/08/12 01:56:55;;;;;;;10.73;7.25;;;14.60;99.90;;;;;;4590810;19;20018;-62
2023/08/12 01:58:26;;;;;;;11.48;7.40;;;14.70;99.90;;;;;;4590756;19;20383;-62
2023/08/12 01:59:58;;;;;;;;;;;14.60;99.90;;;;;;4591664;19;20422;-62
2023/08/12 02:01:29;;;;;;;;;;;14.60;99.90;;;;;;4591178;19;19918;-63
2023/08/12 02:03:01;;;;;;;;;;;14.60;99.90;;;;;;4591837;19;19918;-62
2023/08/12 02:04:33;;;;;;;;;;;14.60;99.90;;;;;;4591649;19;20240;-62
2023/08/12 02:06:05;;;;;;;;;;;14.60;99.90;;;;;;4590645;19;19974;-62
2023/08/12 02:07:36;;;;;;;;;;;14.60;99.90;;;;;;4591453;19;19918;-62
2023/08/12 02:09:08;;;;;;;;;;;14.60;99.90;;;;;;4591553;19;19980;-62
2023/08/12 02:10:39;;;;;;;;;;;14.60;99.90;;;;;;4591591;19;20020;-62
2023/08/12 02:12:10;;;;;;;;;;;14.60;99.90;;;;;;4590494;19;19911;-62
2023/08/12 02:13:42;;;;;;;;;;;14.60;99.90;;;;;;4591197;19;19938;-62
2023/08/12 02:15:13;;;;;;;;;;;14.60;99.90;;;;;;4590512;19;19914;-62
2023/08/12 02:16:45;;;;;;;;;;;14.60;99.90;;;;;;4591068;19;19919;-62
2023/08/12 02:18:16;;;;;;;;;;;14.60;99.90;;;;;;4591504;19;19926;-62
2023/08/12 02:19:48;;;;;;;;;;;14.60;99.90;;;;;;4593636;19;19914;-62
2023/08/12 02:21:19;;;;;;;;;;;14.60;99.90;;;;;;4595233;19;19926;-62
2023/08/12 02:22:50;;;;;;;;;;;14.60;99.90;;;;;;4596264;19;20295;-62
2023/08/12 02:24:21;;;;;;;;;;;14.60;99.90;;;;;;4596863;19;19942;-62
2023/08/12 02:25:54;;;;;;;;;;;14.50;99.90;;;;;;4596613;19;19914;-62
2023/08/12 02:27:25;;;;;;;;;;;14.60;99.90;;;;;;4596562;19;19922;-62
2023/08/12 02:28:56;;;;;;;;;;;14.50;99.90;;;;;;4596187;19;19911;-62
2023/08/12 02:30:31;;;;;;;;;;;14.50;99.90;;;;;;4596350;19;19983;-62
2023/08/12 02:32:03;;;;;;;;;;;14.50;99.90;;;;;;4595505;19;19947;-62
2023/08/12 02:33:34;;;;;;;;;;;14.50;99.90;;;;;;4595911;19;19915;-62
2023/08/12 02:35:06;;;;;;;;;;;14.50;99.90;;;;;;4596380;19;19918;-62
2023/08/12 02:36:38;;;;;;;;;;;14.50;99.90;;;;;;4596726;19;19915;-62
2023/08/12 02:38:09;;;;;;;;;;;14.50;99.90;;;;;;4596305;19;19974;-62
2023/08/12 02:39:40;;;;;;;;;;;14.50;99.90;;;;;;4596404;19;19918;-62
2023/08/12 02:41:12;;;;;;;;;;;14.50;99.90;;;;;;4595999;19;19918;-62
2023/08/12 02:42:43;;;;;;;;;;;14.40;99.90;;;;;;4596288;19;20248;-62
2023/08/12 02:44:15;;;;;;;;;;;14.40;99.90;;;;;;4596574;19;19934;-62
2023/08/12 02:45:46;;;;;;;;;;;14.40;99.90;;;;;;4596226;19;19926;-62
2023/08/12 02:47:18;;;;;;;;;;;14.40;99.90;;;;;;4596410;19;19919;-62
2023/08/12 02:48:50;;;;;;;;;;;14.40;99.90;;;;;;4596330;19;19915;-62
2023/08/12 02:50:21;;;;;;;;;;;14.40;99.90;;;;;;4596054;19;19919;-62
2023/08/12 02:51:53;;;;;;;;;;;14.40;99.90;;;;;;4594362;19;19919;-62
2023/08/12 02:53:24;;;;;;;;;;;14.40;99.90;;;;;;4595074;19;19954;-62
2023/08/12 02:54:56;;;;;;;;;;;14.40;99.90;;;;;;4595998;19;20003;-62
2023/08/12 02:56:27;;;;;;;;;;;14.40;99.90;;;;;;4596161;19;19914;-62
2023/08/12 02:57:59;;;;;;;;;;;14.40;99.90;;;;;;4596165;19;20227;-62
2023/08/12 02:59:30;;;;;;;;;;;14.40;99.90;;;;;;4594758;19;19924;-62
2023/08/12 03:01:04;;;;;;;;;;;14.40;99.90;;;;;;4595463;19;19919;-62
2023/08/12 03:02:35;;;;;;;;;;;14.40;99.90;;;;;;4594936;19;19928;-62
2023/08/12 03:04:06;;;;;;;;;;;14.30;99.90;;;;;;4595877;19;19923;-62
2023/08/12 03:05:43;;;;;;;;;;;14.30;99.90;;;;;;4596120;19;19915;-62
2023/08/12 03:07:14;;;;;;;;;;;14.30;99.90;;;;;;4596119;19;20007;-62
2023/08/12 03:08:46;;;;;;;;;;;14.40;99.90;;;;;;4595681;19;20314;-62
2023/08/12 03:10:18;;;;;;;;;;;14.40;99.90;;;;;;4594531;19;19915;-63
2023/08/12 03:11:49;;;;;;;;;;;14.40;99.90;;;;;;4594586;19;19915;-62
2023/08/12 03:13:21;;;;;;;;;;;14.40;99.90;;;;;;4595759;19;19921;-62
2023/08/12 03:14:52;;;;;;;;;;;14.40;99.90;;;;;;4595656;19;20346;-62
2023/08/12 03:16:23;;;;;;;;;;;14.40;99.90;;;;;;4595656;19;19945;-62
2023/08/12 03:17:55;;;;;;;;;;;14.40;99.90;;;;;;4596010;19;19933;-62
2023/08/12 03:19:27;;;;;;;;;;;14.40;99.90;;;;;;4594288;19;19926;-62
2023/08/12 03:20:58;;;;;;;;;;;14.40;99.90;;;;;;4595427;19;19925;-62
2023/08/12 03:22:29;;;;;;;;;;;14.40;99.90;;;;;;4595469;19;19922;-62
2023/08/12 03:24:02;;;;;;;;;;;14.40;99.90;;;;;;4595525;19;20322;-62
2023/08/12 03:25:33;;;;;;;;;;;14.40;99.90;;;;;;4595797;19;19919;-62
2023/08/12 03:27:05;;;;;;;;;;;14.40;99.90;;;;;;4595385;19;19927;-62
2023/08/12 03:28:37;;;;;;;;;;;14.40;99.90;;;;;;4595450;19;20211;-62
2023/08/12 03:30:09;;;;;;;;;;;14.40;99.90;;;;;;4595423;19;19911;-62
2023/08/12 03:31:40;;;;;;;;;;;14.40;99.90;;;;;;4592918;19;19915;-62
2023/08/12 03:33:12;;;;;;;;;;;14.40;99.90;;;;;;4595590;19;19915;-62
2023/08/12 03:34:43;;;;;;;;;;;14.50;99.90;;;;;;4595745;19;19915;-62
2023/08/12 03:36:15;;;;;;;;;;;14.50;99.90;;;;;;4595292;19;19915;-62
2023/08/12 03:37:46;;;;;;;;;;;14.70;99.90;;;;;;4595421;19;19934;-62
2023/08/12 03:39:17;;;;;;;;;;;15.20;99.90;;;;;;4595275;19;19921;-62
2023/08/12 03:40:49;;;;;;;;;;;15.50;99.90;;;;;;4595582;19;19914;-62
2023/08/12 03:42:21;;;;;;;;;;;15.90;99.90;;;;;;4592503;19;19921;-62
2023/08/12 03:43:52;;;;;;;;;;;16.20;99.90;;;;;;4594814;19;19922;-62
2023/08/12 03:45:23;;;;;;;;;;;16.40;99.90;;;;;;4595559;19;19922;-62
2023/08/12 03:46:54;;;;;;;;;;;16.70;99.90;;;;;;4595239;19;19931;-62
2023/08/12 03:48:26;;;;;;;;;;;16.90;99.90;;;;;;4595054;19;19911;-62
2023/08/12 03:49:57;;;;;;;;;;;17.00;99.90;;;;;;4595084;19;19914;-62
2023/08/12 03:51:28;;;;;;;;;;;17.20;99.90;;;;;;4594470;19;19941;-62
2023/08/12 03:53:00;;;;;;;;;;;17.30;99.90;;;;;;4595054;19;19911;-62
2023/08/12 03:54:32;;;;;;;;;;;17.40;99.90;;;;;;4593696;19;19933;-62
2023/08/12 03:56:04;;;;;;;;;;;17.50;99.90;;;;;;4594959;19;19911;-62
2023/08/12 03:57:35;;;;;;;;;;;17.60;99.90;;;;;;4595307;19;19917;-62
2023/08/12 03:59:07;;;;;;;;;;;17.70;99.90;;;;;;4594972;19;19922;-62
2023/08/12 04:00:42;;;;;;;;;;;17.70;99.90;;;;;;4594853;19;19942;-62
2023/08/12 04:02:14;;;;;;;;;;;17.80;99.90;;;;;;4593878;19;19978;-62
2023/08/12 04:03:45;;;;;;;;;;;17.80;99.90;;;;;;4594799;19;20330;-62
2023/08/12 04:05:17;;;;;;;;;;;17.90;99.90;;;;;;4594775;19;19922;-62
2023/08/12 04:06:51;;;;;;;;;;;17.90;99.90;;;;;;4594765;19;19919;-62
2023/08/12 04:08:22;;;;;;;;;;;18.00;99.90;;;;;;4594755;19;19922;-62
2023/08/12 04:09:54;;;;;;;;;;;18.00;99.90;;;;;;4593682;19;19915;-62
2023/08/12 04:11:25;;;;;;;;;;;18.10;99.90;;;;;;4593745;19;19987;-62
2023/08/12 04:12:56;;;;;;;;;;;18.10;99.90;;;;;;4594582;19;19941;-62
2023/08/12 04:14:27;;;;;;;;;;;18.10;99.90;;;;;;4592431;19;19926;-62
2023/08/12 04:15:59;;;;;;;;;;;18.20;99.90;;;;;;4594447;19;19910;-62
2023/08/12 04:17:30;;;;;;;;;;;18.20;99.90;;;;;;4594613;19;19915;-62
2023/08/12 04:19:01;;;;;;;;;;;18.20;99.90;;;;;;4594248;19;19910;-62
2023/08/12 04:20:33;;;;;;;;;;;18.30;99.90;;;;;;4594741;19;19925;-62
2023/08/12 04:22:04;;;;;;;;;;;18.30;99.90;;;;;;4593732;19;19922;-62
2023/08/12 04:23:35;;;;;;;;;;;18.40;99.90;;;;;;4594755;19;19917;-62
2023/08/12 04:25:07;;;;;;;;;;;18.40;99.90;;;;;;4594339;19;19914;-62
2023/08/12 04:26:39;;;;;;;;;;;18.40;99.90;;;;;;4593022;19;19922;-62
2023/08/12 04:28:11;;;;;;;;;;;18.40;99.90;;;;;;4593920;19;19915;-62
2023/08/12 04:29:42;;;;;;;;;;;18.40;99.90;;;;;;4594311;19;20300;-63
2023/08/12 04:31:14;;;;;;;;;;;18.50;99.90;;;;;;4594806;19;20192;-62
2023/08/12 04:32:45;;;;;;;;;;;18.50;99.90;;;;;;4594191;19;20241;-62
2023/08/12 04:34:16;;;;;;;;;;;18.50;99.90;;;;;;4593100;19;19906;-62
2023/08/12 04:35:48;;;;;;;;;;;18.50;99.90;;;;;;4595723;19;20271;-62
2023/08/12 04:37:19;;;;;;;;;;;18.50;99.90;;;;;;4596729;19;19918;-62
2023/08/12 04:38:51;;;;;;;;;;;18.60;99.90;;;;;;4596191;19;19922;-62
2023/08/12 04:40:22;;;;;;;;;;;18.60;99.90;;;;;;4596768;19;19924;-62
2023/08/12 04:41:54;;;;;;;;;;;18.60;99.90;;;;;;4595457;19;19915;-62
2023/08/12 04:43:25;;;;;;;;;;;18.60;99.90;;;;;;4596074;19;19915;-62
2023/08/12 04:44:57;;;;;;;;;;;18.60;99.90;;;;;;4596169;19;20234;-62
2023/08/12 04:46:28;;;;;;;;;;;18.70;99.90;;;;;;4593875;19;20215;-62
2023/08/12 04:47:59;;;;;;;;;;;18.70;99.90;;;;;;4593841;19;19935;-62
2023/08/12 04:49:31;;;;;;;;;;;18.70;99.90;;;;;;4593861;19;19923;-62
2023/08/12 04:51:03;;;;;;;;;;;18.70;99.90;;;;;;4593654;19;19978;-62
2023/08/12 04:52:34;;;;;;;;;;;18.70;99.90;;;;;;4594115;19;20240;-62
2023/08/12 04:54:07;;;;;;;;;;;18.70;99.90;;;;;;4593034;19;19915;-62
2023/08/12 04:55:38;;;;;;;;;;;18.70;99.90;;;;;;4592415;19;20276;-62
2023/08/12 04:57:09;;;;;;;;;;;18.70;99.90;;;;;;4592842;19;19911;-62
2023/08/12 04:58:41;;;;;;;;;;;18.70;99.90;;;;;;4593286;19;19918;-62
2023/08/12 05:00:12;;;;;;;;;;;18.80;99.90;;;;;;4593756;19;19914;-62
2023/08/12 05:01:44;;;;;;;;;;;18.80;99.90;;;;;;4592263;19;19921;-62
2023/08/12 05:03:16;;;;;;;;;;;18.80;99.90;;;;;;4593203;19;19938;-62
2023/08/12 05:04:50;;;;;;;;;;;18.80;99.90;;;;;;4593090;19;19974;-62
2023/08/12 05:06:22;;;;;;;;;;;18.80;99.90;;;;;;4593143;19;19918;-62
2023/08/12 05:07:54;;;;;;;;;;;18.80;99.90;;;;;;4593056;19;20258;-62
2023/08/12 05:09:25;;;;;;;;;;;18.80;99.90;;;;;;4593091;19;19919;-62
2023/08/12 05:10:56;;;;;;;;;;;18.90;99.90;;;;;;4592981;19;19938;-62
2023/08/12 05:12:28;;;;;;;;;;;18.90;99.90;;;;;;4591864;19;19922;-62
2023/08/12 05:13:59;;;;;;;;;;;19.00;99.90;;;;;;4592276;19;19915;-62
2023/08/12 05:15:30;;;;;;;;;;;19.10;99.90;;;;;;4593201;19;20311;-62
2023/08/12 05:17:03;;;;;;;;;;;19.20;99.90;;;;;;4592779;19;19914;-62
2023/08/12 05:18:34;;;;;;;;;;;19.30;99.90;;;;;;4592913;19;19974;-62
2023/08/12 05:20:06;;;;;;;;;;;19.40;99.90;;;;;;4592842;19;19921;-61
2023/08/12 05:21:37;;;;;;;;;;;19.50;99.90;;;;;;4592252;19;19923;-61
2023/08/12 05:23:09;;;;;;;;;;;19.50;99.90;;;;;;4592838;19;20211;-61
2023/08/12 05:24:41;;;;;;;;;;;19.60;99.90;;;;;;4593095;19;19911;-61
2023/08/12 05:26:14;;;;;;;;;;;19.70;99.90;;;;;;4593183;19;19915;-61
2023/08/12 05:27:45;;;;;;;;;;;19.70;99.90;;;;;;4593118;19;20231;-61
2023/08/12 05:29:16;;;;;;;;;;;19.80;99.90;;;;;;4593081;19;19918;-61
2023/08/12 05:30:48;;;;;;;;;;;19.80;99.90;;;;;;4593422;19;20238;-61
2023/08/12 05:32:19;;;;;;;;;;;19.90;99.90;;;;;;4592327;19;19914;-61
2023/08/12 05:33:50;;;;;;;;;;;19.90;99.90;;;;;;4592529;19;19915;-61
2023/08/12 05:35:22;;;;;;;;;;;19.90;99.90;;;;;;4593010;19;20289;-61
2023/08/12 05:36:53;;;;;;;;;;;19.90;99.90;;;;;;4593321;19;19924;-61
2023/08/12 05:38:24;;;;;;;;;;;19.90;99.90;;;;;;4592912;19;20354;-61
2023/08/12 05:39:56;;;;;;;;;;;19.90;99.90;;;;;;4592941;19;19918;-61
2023/08/12 05:41:27;;;;;;;;;;;20.00;99.90;;;;;;4592413;19;19934;-61
2023/08/12 05:42:58;;;;;;;;;;;20.00;99.90;;;;;;4592812;19;20215;-61
2023/08/12 05:44:30;;;;;;;;;;;20.00;99.90;;;;;;4594916;19;20295;-61
2023/08/12 05:46:01;;;;;;;;;;;20.10;99.90;;;;;;4595078;19;19911;-61
2023/08/12 05:47:32;;;;;;;;;;;20.20;99.90;;;;;;4592793;19;19922;-61
2023/08/12 05:49:05;;;;;;;;;;;20.20;99.90;;;;;;4592809;19;19945;-61
2023/08/12 05:50:37;;;;;;;;;;;20.30;99.90;;;;;;4592745;19;20270;-63
2023/08/12 05:52:08;;;;;;;;;;;20.30;99.90;;;;;;4591836;19;19911;-64
2023/08/12 05:53:40;;;;;;;;;;;20.40;99.90;;;;;;4592306;19;19919;-64
2023/08/12 05:55:11;;;;;;;;;;;20.40;99.90;;;;;;4595997;19;20282;-64
2023/08/12 05:56:42;;;;;;;;;;;20.40;99.90;;;;;;4597513;19;19927;-64
2023/08/12 05:58:13;;;;;;;;;;;20.40;99.90;;;;;;4596411;19;19926;-64
2023/08/12 05:59:45;;;;;;;;;;;20.40;99.90;;;;;;4597247;19;19948;-65
2023/08/12 06:01:16;;;;;;;;;;;20.40;99.90;;;;;;4597215;19;19982;-64
2023/08/12 06:02:47;;;;;;;;;;;20.40;99.90;;;;;;4595755;19;19939;-65
2023/08/12 06:04:18;;;;;;;;;;;20.40;99.90;;;;;;4597584;19;19915;-64
2023/08/12 06:05:50;;;;;;;;;;;20.40;99.90;;;;;;4597351;19;19915;-64
2023/08/12 06:07:23;;;;;;;;;;;20.40;99.90;;;;;;4597380;19;19915;-65
2023/08/12 06:08:54;;;;;;;;;;;20.40;99.90;;;;;;4597158;19;20305;-65
2023/08/12 06:10:25;;;;;;;;;;;20.40;99.90;;;;;;4597465;19;19931;-65
2023/08/12 06:11:56;;;;;;;;;;;20.40;99.90;;;;;;4595802;19;19922;-64
2023/08/12 06:13:28;;;;;;;;;;;20.40;99.90;;;;;;4597142;19;19919;-64
2023/08/12 06:15:01;;;;;;;;;;;20.40;99.90;;;;;;4597325;19;19919;-64
2023/08/12 06:16:34;;;;;;;;;;;20.40;99.90;;;;;;4597373;19;19945;-64
2023/08/12 06:18:05;;;;;;;;;;;20.40;99.90;;;;;;4597029;19;20295;-64
2023/08/12 06:19:37;;;;;;;;;;;20.40;99.90;;;;;;4597326;19;19943;-64
2023/08/12 06:21:09;;;;;;;;;;;20.40;99.90;;;;;;4596945;19;19939;-64
2023/08/12 06:22:40;;;;;;;;;;;20.40;99.90;;;;;;4597217;19;19911;-64
2023/08/12 06:24:11;;;;;;;;;;;20.50;99.90;;;;;;4597077;19;19906;-64
2023/08/12 06:25:43;;;;;;;;;;;20.50;99.90;;;;;;4598264;19;19914;-65
2023/08/12 06:27:15;;;;;;;;;;;20.50;99.90;;;;;;4597106;19;19914;-64
2023/08/12 06:28:46;;;;;;;;;;;20.50;99.90;;;;;;4596945;19;19931;-64
2023/08/12 06:30:18;;;;;;;;;;;20.50;99.90;;;;;;4598919;19;20231;-64
2023/08/12 06:31:50;;;;;;;;;;;20.50;99.90;;;;;;4597637;19;19911;-64
2023/08/12 06:33:21;;;;;;;;;;;20.50;99.90;;;;;;4598896;19;19911;-64
2023/08/12 06:34:53;;;;;;;;;;;20.50;99.90;;;;;;4595278;19;20258;-64
2023/08/12 06:36:24;;;;;;;;;;;20.50;99.90;;;;;;4596511;19;19918;-64
2023/08/12 06:37:55;;;;;;;;;;;18.70;99.90;;;;;;4596708;19;19928;-63
2023/08/12 06:39:27;;;;;;;;;;;17.90;99.90;;;;;;4596673;19;19915;-64
2023/08/12 06:40:58;;;;;;;;;;;17.70;99.90;;;;;;4595656;19;19907;-63
2023/08/12 06:42:29;;;;;;;;;;;17.60;99.90;;;;;;4596178;19;20311;-65
2023/08/12 06:44:03;;;;;;;;;;;17.60;99.90;;;;;;4596526;19;19918;-63
2023/08/12 06:45:35;;;;;;;;;;;17.60;99.90;;;;;;4596535;19;19978;-64
2023/08/12 06:47:06;;;;;;;;;;;17.70;99.90;;;;;;4596745;19;19917;-63
2023/08/12 06:48:37;;;;;;;;;;;17.70;99.90;;;;;;4596466;19;19922;-64
2023/08/12 06:50:08;;;;;;;;;;;17.80;99.90;;;;;;4596665;19;19918;-63
2023/08/12 06:51:40;;;;;;;;;;;17.90;99.90;;;;;;4595471;19;19914;-63
2023/08/12 06:53:11;;;;;;;;;;;17.90;99.90;;;;;;4596637;19;19919;-64
2023/08/12 06:54:44;;;;;;;;;;;18.00;99.90;;;;;;4595035;19;20286;-64
2023/08/12 06:56:15;;;;;;;;;;;18.00;99.90;;;;;;4594918;19;19935;-64
2023/08/12 06:57:46;;;;;;;;;;;17.90;99.90;;;;;;4596066;19;19938;-64
2023/08/12 06:59:18;;;;;;;;;;;18.00;99.90;;;;;;4596511;19;20282;-64
2023/08/12 07:00:50;;;;;;;;;;;18.00;99.90;;;;;;4596204;19;19917;-64
2023/08/12 07:02:22;;;;;;;;;;;18.00;99.90;;;;;;4594382;19;19922;-64
2023/08/12 07:03:53;;;;;;;;;;;18.00;99.90;;;;;;4594654;19;19942;-64
2023/08/12 07:05:24;;;;;;;;;;;18.10;99.90;;;;;;4594516;19;20194;-64
2023/08/12 07:06:57;;;;;;;;;;;18.20;99.90;;;;;;4594043;19;19922;-64
2023/08/12 07:08:29;;;;;;;;;;;18.30;99.90;;;;;;4595632;19;19934;-64
2023/08/12 07:10:01;;;;;;;;;;;18.30;99.90;;;;;;4595915;19;19921;-64
2023/08/12 07:11:33;;;;;;;;;;;18.30;99.90;;;;;;4594835;19;19937;-64
2023/08/12 07:13:04;;;;;;;;;;;18.30;99.90;;;;;;4595559;19;19911;-64
2023/08/12 07:14:35;;;;;;;;;;;18.50;99.90;;;;;;4594409;19;19914;-64
2023/08/12 07:16:07;;;;;;;;;;;18.40;99.90;;;;;;4595225;19;19915;-64
2023/08/12 07:17:38;;;;;;;;;;;18.50;99.90;;;;;;4595540;19;19918;-64
2023/08/12 07:19:09;;;;;;;;;;;18.60;99.90;;;;;;4595402;19;19938;-64
2023/08/12 07:20:41;;;;;;;;;;;18.60;99.90;;;;;;4595479;19;19918;-64
2023/08/12 07:22:12;;;;;;;;;;;18.60;99.90;;;;;;4594304;19;19962;-64
2023/08/12 07:23:44;;;;;;;;;;;18.70;99.90;;;;;;4595235;19;19914;-64
2023/08/12 07:25:16;;;;;;;;;;;18.70;99.90;;;;;;4595150;19;19923;-64
2023/08/12 07:26:48;;;;;;;;;;;18.80;99.90;;;;;;4595818;19;19911;-64
2023/08/12 07:28:20;;;;;;;;;;;18.80;99.90;;;;;;4595463;19;20233;-64
2023/08/12 07:29:52;;;;;;;;;;;18.80;99.90;;;;;;4595162;19;19914;-64
2023/08/12 07:31:25;;;;;;;;;;;18.90;99.90;;;;;;4594589;19;19915;-64
2023/08/12 07:32:56;;;;;;;;;;;18.90;99.90;;;;;;4595384;19;19918;-64
2023/08/12 07:34:28;;;;;;;;;;;18.90;99.90;;;;;;4593872;19;20235;-64
2023/08/12 07:35:59;;;;;;;;;;;19.00;99.90;;;;;;4595371;19;19944;-64
2023/08/12 07:37:30;;;;;;;;;;;19.00;99.90;;;;;;4595363;19;19938;-64
2023/08/12 07:39:02;;;;;;;;;;;19.10;99.90;;;;;;4595308;19;19951;-64
2023/08/12 07:40:33;;;;;;;;;;;19.10;99.90;;;;;;4594866;19;19960;-64
2023/08/12 07:42:05;;;;;;;;;;;19.10;99.90;;;;;;4594375;19;19921;-64
2023/08/12 07:43:36;;;;;;;;;;;19.20;99.90;;;;;;4595138;19;19921;-64
2023/08/12 07:45:08;;;;;;;;;;;19.20;99.90;;;;;;4595038;19;19915;-64
2023/08/12 07:46:43;;;;;;;;;;;19.20;99.90;;;;;;4594877;19;19915;-64
2023/08/12 07:48:15;;;;;;;;;;;19.30;99.90;;;;;;4595035;19;19926;-64
2023/08/12 07:49:46;;;;;;;;;;;19.30;99.90;;;;;;4593591;19;19915;-64
2023/08/12 07:51:17;;;;;;;;;;;19.40;99.90;;;;;;4593850;19;19938;-64
2023/08/12 07:52:49;;;;;;;;;;;19.30;99.90;;;;;;4594604;19;19926;-64
2023/08/12 07:54:20;;;;;;;;;;;19.40;99.90;;;;;;4593902;19;19942;-64
2023/08/12 07:55:51;;;;;;;;;;;19.40;99.90;;;;;;4594886;19;19911;-64
2023/08/12 07:57:24;;;;;;;;;;;19.40;99.90;;;;;;4594475;19;19925;-64
2023/08/12 07:58:55;;;;;;;;;;;19.50;99.90;;;;;;4594494;19;20320;-64
2023/08/12 08:00:28;;;;;;;;;;;19.50;99.90;;;;;;4594619;19;20254;-64
2023/08/12 08:02:00;;;;;;;;;;;19.60;99.90;;;;;;4591947;19;19957;-64
2023/08/12 08:03:32;;;;;;;;;;;19.70;99.90;;;;;;4594222;19;19917;-64
2023/08/12 08:05:03;;;;;;;;;;;19.70;99.90;;;;;;4594624;19;19921;-61
2023/08/12 08:06:35;;;;;;;;;;;19.80;99.90;;;;;;4594144;19;19922;-61
2023/08/12 08:08:06;;;;;;;;;;;19.70;99.90;;;;;;4595332;19;19911;-62
2023/08/12 08:09:37;;;;;;;;;;;19.80;99.90;;;;;;4596271;19;19914;-62
2023/08/12 08:11:09;;;;;;;;;;;19.70;99.90;;;;;;4595937;19;19915;-61
2023/08/12 08:12:42;;;;;;;;;;;19.80;99.90;;;;;;4595968;19;19914;-61
2023/08/12 08:14:14;;;;;;;;;;;19.80;99.90;;;;;;4595468;19;19914;-62
2023/08/12 08:15:45;;;;;;;;;;;19.80;99.90;;;;;;4596156;19;19980;-62
2023/08/12 08:17:17;;;;;;;;;;;19.80;99.90;;;;;;4595989;19;19910;-62
2023/08/12 08:18:48;;;;;;;;;;;19.90;99.90;;;;;;4597083;19;19910;-62
2023/08/12 08:20:21;;;;;;;;;;;20.00;99.90;;;;;;4596538;19;19915;-62
2023/08/12 08:21:52;;;;;;;;;;;20.00;99.90;;;;;;4596212;19;19911;-62
2023/08/12 08:23:24;;;;;;;;;;;20.10;99.90;;;;;;4596564;19;19910;-62
2023/08/12 08:24:56;;;;;;;;;;;20.10;99.90;;;;;;4596729;19;19926;-62
2023/08/12 08:26:27;;;;;;;;;;;20.20;99.90;;;;;;4596468;19;19998;-62
2023/08/12 08:27:59;;;;;;;;;;;20.20;99.90;;;;;;4595503;19;20283;-62
2023/08/12 08:29:31;;;;;;;;;;;20.30;99.90;;;;;;4596969;19;20208;-62
2023/08/12 08:31:03;;;;;;;;;;;20.30;99.90;;;;;;4594408;19;19919;-62
2023/08/12 08:32:34;;;;;;;;;;;20.40;99.90;;;;;;4596316;19;19976;-62
2023/08/12 08:34:06;;;;;;;;;;;20.40;99.90;;;;;;4596069;19;20299;-61
2023/08/12 08:35:38;;;;;;;;;;;20.40;99.90;;;;;;4593920;19;19939;-62
2023/08/12 08:37:10;;;;;;;;;;;20.50;99.90;;;;;;4594173;19;19936;-62
2023/08/12 08:38:42;;;;;;;;;;;20.50;99.90;;;;;;4594143;19;19931;-62
2023/08/12 08:40:14;;;;;;;;;;;20.50;99.90;;;;;;4594479;19;19929;-62
2023/08/12 08:41:45;;;;;;;;;;;20.60;99.90;;;;;;4593428;19;19919;-62